sensor_id;sensor_type;location;lat;lon;timestamp;temperature;humidity
71754;DHT22;59593;51.716;7.016;2022-10-16T00:00:34;13.20;99.90
71754;DHT22;59593;51.716;7.016;2022-10-16T00:03:00;13.20;99.90
71754;DHT22;59593;51.716;7.016;2022-10-16T00:05:25;13.20;99.90
71754;DHT22;59593;51.716;7.016;2022-10-16T00:07:51;13.20;99.90
71754;DHT22;59593;51.716;7.016;2022-10-16T00:10:16;13.20;99.90
71754;DHT22;59593;51.716;7.016;2022-10-16T00:12:42;13.20;99.90
71754;DHT22;59593;51.716;7.016;2022-10-16T00:15:08;13.10;99.90
71754;DHT22;59593;51.716;7.016;2022-10-16T00:17:34;13.10;99.90
71754;DHT22;59593;51.716;7.016;2022-10-16T00:20:00;13.10;99.90
71754;DHT22;59593;51.716;7.016;2022-10-16T00:22:26;13.10;99.90
71754;DHT22;59593;51.716;7.016;2022-10-16T00:24:51;13.00;99.90
71754;DHT22;59593;51.716;7.016;2022-10-16T00:27:17;13.10;99.90
71754;DHT22;59593;51.716;7.016;2022-10-16T00:29:43;13.10;99.90
71754;DHT22;59593;51.716;7.016;2022-10-16T00:32:08;13.10;99.90
71754;DHT22;59593;51.716;7.016;2022-10-16T00:34:34;13.00;99.90
71754;DHT22;59593;51.716;7.016;2022-10-16T00:37:00;13.10;99.90
71754;DHT22;59593;51.716;7.016;2022-10-16T00:39:26;13.10;99.90
71754;DHT22;59593;51.716;7.016;2022-10-16T00:41:51;13.10;99.90
71754;DHT22;59593;51.716;7.016;2022-10-16T00:49:57;13.00;99.90
71754;DHT22;59593;51.716;7.016;2022-10-16T00:52:23;12.90;99.90
71754;DHT22;59593;51.716;7.016;2022-10-16T00:54:50;12.90;99.90
71754;DHT22;59593;51.716;7.016;2022-10-16T00:57:17;12.90;99.90
71754;DHT22;59593;51.716;7.016;2022-10-16T00:59:42;12.90;99.90
71754;DHT22;59593;51.716;7.016;2022-10-16T01:02:11;12.90;99.90
71754;DHT22;59593;51.716;7.016;2022-10-16T01:04:43;12.90;99.90
71754;DHT22;59593;51.716;7.016;2022-10-16T01:13:11;12.90;99.90
71754;DHT22;59593;51.716;7.016;2022-10-16T01:15:43;12.90;99.90
71754;DHT22;59593;51.716;7.016;2022-10-16T01:18:24;12.90;99.90
71754;DHT22;59593;51.716;7.016;2022-10-16T01:23:33;12.80;99.90
71754;DHT22;59593;51.716;7.016;2022-10-16T01:31:25;12.80;99.90
71754;DHT22;59593;51.716;7.016;2022-10-16T01:34:28;12.80;99.90
71754;DHT22;59593;51.716;7.016;2022-10-16T01:36:51;12.80;99.90
71754;DHT22;59593;51.716;7.016;2022-10-16T01:39:21;12.70;99.90
71754;DHT22;59593;51.716;7.016;2022-10-16T01:41:54;12.60;99.90
71754;DHT22;59593;51.716;7.016;2022-10-16T01:44:24;12.50;99.90
71754;DHT22;59593;51.716;7.016;2022-10-16T01:46:53;12.40;99.90
71754;DHT22;59593;51.716;7.016;2022-10-16T01:49:21;12.40;99.90
71754;DHT22;59593;51.716;7.016;2022-10-16T01:51:50;12.40;99.90
71754;DHT22;59593;51.716;7.016;2022-10-16T01:54:18;12.50;99.90
71754;DHT22;59593;51.716;7.016;2022-10-16T01:56:46;12.50;99.90
71754;DHT22;59593;51.716;7.016;2022-10-16T01:59:16;12.60;99.90
71754;DHT22;59593;51.716;7.016;2022-10-16T02:01:47;12.50;99.90
71754;DHT22;59593;51.716;7.016;2022-10-16T02:04:29;12.50;99.90
71754;DHT22;59593;51.716;7.016;2022-10-16T02:06:56;12.50;99.90
71754;DHT22;59593;51.716;7.016;2022-10-16T02:09:21;12.50;99.90
71754;DHT22;59593;51.716;7.016;2022-10-16T02:11:47;12.60;99.90
71754;DHT22;59593;51.716;7.016;2022-10-16T02:14:14;12.60;99.90
71754;DHT22;59593;51.716;7.016;2022-10-16T02:16:45;12.60;99.90
71754;DHT22;59593;51.716;7.016;2022-10-16T02:19:12;12.70;99.90
71754;DHT22;59593;51.716;7.016;2022-10-16T02:21:46;12.70;99.90
71754;DHT22;59593;51.716;7.016;2022-10-16T02:24:19;12.70;99.90
71754;DHT22;59593;51.716;7.016;2022-10-16T02:26:52;12.80;99.90
71754;DHT22;59593;51.716;7.016;2022-10-16T02:29:22;12.90;99.90
71754;DHT22;59593;51.716;7.016;2022-10-16T02:31:54;12.90;99.90
71754;DHT22;59593;51.716;7.016;2022-10-16T02:34:21;12.90;99.90
71754;DHT22;59593;51.716;7.016;2022-10-16T02:36:49;12.90;99.90
71754;DHT22;59593;51.716;7.016;2022-10-16T02:39:16;13.00;99.90
71754;DHT22;59593;51.716;7.016;2022-10-16T02:41:42;13.00;99.90
71754;DHT22;59593;51.716;7.016;2022-10-16T02:44:08;13.00;99.90
71754;DHT22;59593;51.716;7.016;2022-10-16T02:46:33;13.00;99.90
71754;DHT22;59593;51.716;7.016;2022-10-16T02:48:59;13.00;99.90
71754;DHT22;59593;51.716;7.016;2022-10-16T02:51:24;13.10;99.90
71754;DHT22;59593;51.716;7.016;2022-10-16T02:53:50;13.00;99.90
71754;DHT22;59593;51.716;7.016;2022-10-16T02:56:16;12.90;99.90
71754;DHT22;59593;51.716;7.016;2022-10-16T02:58:41;13.00;99.90
71754;DHT22;59593;51.716;7.016;2022-10-16T03:01:07;13.00;99.90
71754;DHT22;59593;51.716;7.016;2022-10-16T03:03:33;12.90;99.90
71754;DHT22;59593;51.716;7.016;2022-10-16T03:05:58;13.00;99.90
71754;DHT22;59593;51.716;7.016;2022-10-16T03:08:24;13.00;99.90
71754;DHT22;59593;51.716;7.016;2022-10-16T03:10:51;13.00;99.90
71754;DHT22;59593;51.716;7.016;2022-10-16T03:13:17;12.90;99.90
71754;DHT22;59593;51.716;7.016;2022-10-16T03:15:43;12.90;99.90
71754;DHT22;59593;51.716;7.016;2022-10-16T03:18:09;12.90;99.90
71754;DHT22;59593;51.716;7.016;2022-10-16T03:20:34;12.90;99.90
71754;DHT22;59593;51.716;7.016;2022-10-16T03:23:00;12.90;99.90
71754;DHT22;59593;51.716;7.016;2022-10-16T03:25:25;12.90;99.90
71754;DHT22;59593;51.716;7.016;2022-10-16T03:27:51;12.90;99.90
71754;DHT22;59593;51.716;7.016;2022-10-16T03:30:17;12.90;99.90
71754;DHT22;59593;51.716;7.016;2022-10-16T03:32:44;13.00;99.90
71754;DHT22;59593;51.716;7.016;2022-10-16T03:35:10;12.90;99.90
71754;DHT22;59593;51.716;7.016;2022-10-16T03:37:36;12.90;99.90
71754;DHT22;59593;51.716;7.016;2022-10-16T03:40:02;12.90;99.90
71754;DHT22;59593;51.716;7.016;2022-10-16T03:42:28;12.90;99.90
71754;DHT22;59593;51.716;7.016;2022-10-16T03:44:54;13.00;99.90
71754;DHT22;59593;51.716;7.016;2022-10-16T03:47:19;13.00;99.90
71754;DHT22;59593;51.716;7.016;2022-10-16T03:49:47;13.00;99.90
71754;DHT22;59593;51.716;7.016;2022-10-16T03:52:13;12.90;99.90
71754;DHT22;59593;51.716;7.016;2022-10-16T03:54:39;13.00;99.90
71754;DHT22;59593;51.716;7.016;2022-10-16T03:57:05;12.90;99.90
71754;DHT22;59593;51.716;7.016;2022-10-16T03:59:31;12.90;99.90
71754;DHT22;59593;51.716;7.016;2022-10-16T04:01:56;13.10;99.90
71754;DHT22;59593;51.716;7.016;2022-10-16T04:04:22;13.10;99.90
71754;DHT22;59593;51.716;7.016;2022-10-16T04:06:47;13.10;99.90
71754;DHT22;59593;51.716;7.016;2022-10-16T04:09:13;13.00;99.90
71754;DHT22;59593;51.716;7.016;2022-10-16T04:11:39;13.00;99.90
71754;DHT22;59593;51.716;7.016;2022-10-16T04:14:04;13.10;99.90
71754;DHT22;59593;51.716;7.016;2022-10-16T04:16:30;13.20;99.90
71754;DHT22;59593;51.716;7.016;2022-10-16T04:18:56;13.20;99.90
71754;DHT22;59593;51.716;7.016;2022-10-16T04:21:21;13.20;99.90
71754;DHT22;59593;51.716;7.016;2022-10-16T04:23:47;13.30;99.90
71754;DHT22;59593;51.716;7.016;2022-10-16T04:26:13;13.20;99.90
71754;DHT22;59593;51.716;7.016;2022-10-16T04:28:39;13.20;99.90
71754;DHT22;59593;51.716;7.016;2022-10-16T04:31:05;13.30;99.90
71754;DHT22;59593;51.716;7.016;2022-10-16T04:33:31;13.30;99.90
71754;DHT22;59593;51.716;7.016;2022-10-16T04:36:01;13.30;99.90
71754;DHT22;59593;51.716;7.016;2022-10-16T04:38:27;13.30;99.90
71754;DHT22;59593;51.716;7.016;2022-10-16T04:40:52;13.20;99.90
71754;DHT22;59593;51.716;7.016;2022-10-16T04:43:18;13.20;99.90
71754;DHT22;59593;51.716;7.016;2022-10-16T04:45:44;13.30;99.90
71754;DHT22;59593;51.716;7.016;2022-10-16T04:48:10;13.30;99.90
71754;DHT22;59593;51.716;7.016;2022-10-16T04:50:35;13.20;99.90
71754;DHT22;59593;51.716;7.016;2022-10-16T04:53:01;13.20;99.90
71754;DHT22;59593;51.716;7.016;2022-10-16T04:55:26;13.30;99.90
71754;DHT22;59593;51.716;7.016;2022-10-16T04:57:52;13.20;99.90
71754;DHT22;59593;51.716;7.016;2022-10-16T05:00:17;13.20;99.90
71754;DHT22;59593;51.716;7.016;2022-10-16T05:02:43;13.30;99.90
71754;DHT22;59593;51.716;7.016;2022-10-16T05:05:09;13.30;99.90
71754;DHT22;59593;51.716;7.016;2022-10-16T05:07:34;13.40;99.90
71754;DHT22;59593;51.716;7.016;2022-10-16T05:10:00;13.30;99.90
71754;DHT22;59593;51.716;7.016;2022-10-16T05:12:26;13.30;99.90
71754;DHT22;59593;51.716;7.016;2022-10-16T05:14:51;13.30;99.90
71754;DHT22;59593;51.716;7.016;2022-10-16T05:17:17;13.30;99.90
71754;DHT22;59593;51.716;7.016;2022-10-16T05:19:43;13.30;99.90
71754;DHT22;59593;51.716;7.016;2022-10-16T05:22:08;13.30;99.90
71754;DHT22;59593;51.716;7.016;2022-10-16T05:24:34;13.30;99.90
71754;DHT22;59593;51.716;7.016;2022-10-16T05:27:00;13.30;99.90
71754;DHT22;59593;51.716;7.016;2022-10-16T05:29:25;13.30;99.90
71754;DHT22;59593;51.716;7.016;2022-10-16T05:31:52;13.30;99.90
71754;DHT22;59593;51.716;7.016;2022-10-16T05:34:18;13.30;99.90
71754;DHT22;59593;51.716;7.016;2022-10-16T05:36:44;13.30;99.90
71754;DHT22;59593;51.716;7.016;2022-10-16T05:39:11;13.20;99.90
71754;DHT22;59593;51.716;7.016;2022-10-16T05:41:36;13.20;99.90
71754;DHT22;59593;51.716;7.016;2022-10-16T05:44:05;13.30;99.90
71754;DHT22;59593;51.716;7.016;2022-10-16T05:46:32;13.30;99.90
71754;DHT22;59593;51.716;7.016;2022-10-16T05:48:58;13.30;99.90
71754;DHT22;59593;51.716;7.016;2022-10-16T05:51:24;13.30;99.90
71754;DHT22;59593;51.716;7.016;2022-10-16T05:53:49;13.30;99.90
71754;DHT22;59593;51.716;7.016;2022-10-16T05:56:15;13.30;99.90
71754;DHT22;59593;51.716;7.016;2022-10-16T05:58:41;13.30;99.90
71754;DHT22;59593;51.716;7.016;2022-10-16T06:01:10;13.30;99.90
71754;DHT22;59593;51.716;7.016;2022-10-16T06:03:37;13.20;99.90
71754;DHT22;59593;51.716;7.016;2022-10-16T06:06:10;13.10;99.90
71754;DHT22;59593;51.716;7.016;2022-10-16T06:08:36;13.10;99.90
71754;DHT22;59593;51.716;7.016;2022-10-16T06:11:03;13.10;99.90
71754;DHT22;59593;51.716;7.016;2022-10-16T06:13:29;13.10;99.90
71754;DHT22;59593;51.716;7.016;2022-10-16T06:15:57;13.00;99.90
71754;DHT22;59593;51.716;7.016;2022-10-16T06:18:24;13.10;99.90
71754;DHT22;59593;51.716;7.016;2022-10-16T06:20:49;13.10;99.90
71754;DHT22;59593;51.716;7.016;2022-10-16T06:23:15;13.10;99.90
71754;DHT22;59593;51.716;7.016;2022-10-16T06:25:40;13.10;99.90
71754;DHT22;59593;51.716;7.016;2022-10-16T06:28:06;13.20;99.90
71754;DHT22;59593;51.716;7.016;2022-10-16T06:30:31;13.20;99.90
71754;DHT22;59593;51.716;7.016;2022-10-16T06:32:57;13.20;99.90
71754;DHT22;59593;51.716;7.016;2022-10-16T06:35:22;13.30;99.90
71754;DHT22;59593;51.716;7.016;2022-10-16T06:37:49;13.20;99.90
71754;DHT22;59593;51.716;7.016;2022-10-16T06:40:14;13.20;99.90
71754;DHT22;59593;51.716;7.016;2022-10-16T06:42:41;13.30;99.90
71754;DHT22;59593;51.716;7.016;2022-10-16T06:45:07;13.30;99.90
71754;DHT22;59593;51.716;7.016;2022-10-16T06:47:32;13.20;99.90
71754;DHT22;59593;51.716;7.016;2022-10-16T06:49:58;13.30;99.90
71754;DHT22;59593;51.716;7.016;2022-10-16T06:52:24;13.30;99.90
71754;DHT22;59593;51.716;7.016;2022-10-16T06:54:49;13.30;99.90
71754;DHT22;59593;51.716;7.016;2022-10-16T06:57:15;13.30;99.90
71754;DHT22;59593;51.716;7.016;2022-10-16T06:59:41;13.30;99.90
71754;DHT22;59593;51.716;7.016;2022-10-16T07:02:08;13.30;99.90
71754;DHT22;59593;51.716;7.016;2022-10-16T07:04:36;13.40;99.90
71754;DHT22;59593;51.716;7.016;2022-10-16T07:07:01;13.30;99.90
71754;DHT22;59593;51.716;7.016;2022-10-16T07:09:27;13.40;99.90
71754;DHT22;59593;51.716;7.016;2022-10-16T07:11:53;13.40;99.90
71754;DHT22;59593;51.716;7.016;2022-10-16T07:14:20;13.40;99.90
71754;DHT22;59593;51.716;7.016;2022-10-16T07:16:47;13.40;99.90
71754;DHT22;59593;51.716;7.016;2022-10-16T07:19:13;13.40;99.90
71754;DHT22;59593;51.716;7.016;2022-10-16T07:21:40;13.40;99.90
71754;DHT22;59593;51.716;7.016;2022-10-16T07:24:10;13.40;99.90
71754;DHT22;59593;51.716;7.016;2022-10-16T07:26:37;13.40;99.90
71754;DHT22;59593;51.716;7.016;2022-10-16T07:29:05;13.40;99.90
71754;DHT22;59593;51.716;7.016;2022-10-16T07:31:31;13.50;99.90
71754;DHT22;59593;51.716;7.016;2022-10-16T07:33:59;13.60;99.90
71754;DHT22;59593;51.716;7.016;2022-10-16T07:36:25;13.70;99.90
71754;DHT22;59593;51.716;7.016;2022-10-16T07:38:50;13.70;99.90
71754;DHT22;59593;51.716;7.016;2022-10-16T07:41:18;13.80;99.90
71754;DHT22;59593;51.716;7.016;2022-10-16T07:43:48;13.90;99.90
71754;DHT22;59593;51.716;7.016;2022-10-16T07:46:14;13.90;99.90
71754;DHT22;59593;51.716;7.016;2022-10-16T07:48:40;14.00;99.90
71754;DHT22;59593;51.716;7.016;2022-10-16T07:51:07;14.10;99.90
71754;DHT22;59593;51.716;7.016;2022-10-16T07:53:33;14.20;99.90
71754;DHT22;59593;51.716;7.016;2022-10-16T07:56:00;14.30;99.90
71754;DHT22;59593;51.716;7.016;2022-10-16T07:58:27;14.30;99.90
71754;DHT22;59593;51.716;7.016;2022-10-16T08:00:54;14.30;99.90
71754;DHT22;59593;51.716;7.016;2022-10-16T08:03:19;14.50;99.90
71754;DHT22;59593;51.716;7.016;2022-10-16T08:05:45;14.50;99.90
71754;DHT22;59593;51.716;7.016;2022-10-16T08:08:15;14.60;99.90
71754;DHT22;59593;51.716;7.016;2022-10-16T08:10:41;14.60;99.90
71754;DHT22;59593;51.716;7.016;2022-10-16T08:13:06;14.60;99.90
71754;DHT22;59593;51.716;7.016;2022-10-16T08:15:32;14.70;99.90
71754;DHT22;59593;51.716;7.016;2022-10-16T08:18:01;14.80;99.90
71754;DHT22;59593;51.716;7.016;2022-10-16T08:20:29;15.00;99.90
71754;DHT22;59593;51.716;7.016;2022-10-16T08:22:55;15.00;99.90
71754;DHT22;59593;51.716;7.016;2022-10-16T08:25:22;15.10;99.90
71754;DHT22;59593;51.716;7.016;2022-10-16T08:27:48;15.10;99.90
71754;DHT22;59593;51.716;7.016;2022-10-16T08:30:15;15.10;99.90
71754;DHT22;59593;51.716;7.016;2022-10-16T08:32:41;15.20;99.90
71754;DHT22;59593;51.716;7.016;2022-10-16T08:35:08;15.20;99.90
71754;DHT22;59593;51.716;7.016;2022-10-16T08:37:34;15.20;99.90
71754;DHT22;59593;51.716;7.016;2022-10-16T08:40:00;15.20;99.90
71754;DHT22;59593;51.716;7.016;2022-10-16T08:42:52;15.30;99.90
71754;DHT22;59593;51.716;7.016;2022-10-16T08:45:34;15.30;99.90
71754;DHT22;59593;51.716;7.016;2022-10-16T08:48:16;15.30;99.90
71754;DHT22;59593;51.716;7.016;2022-10-16T08:50:43;15.50;99.90
71754;DHT22;59593;51.716;7.016;2022-10-16T08:53:26;15.60;99.90
71754;DHT22;59593;51.716;7.016;2022-10-16T08:55:54;15.50;99.90
71754;DHT22;59593;51.716;7.016;2022-10-16T08:58:22;15.50;99.90
71754;DHT22;59593;51.716;7.016;2022-10-16T09:00:51;15.50;99.90
71754;DHT22;59593;51.716;7.016;2022-10-16T09:12:05;15.80;99.90
71754;DHT22;59593;51.716;7.016;2022-10-16T09:17:59;15.80;99.90
71754;DHT22;59593;51.716;7.016;2022-10-16T09:20:38;15.90;99.90
71754;DHT22;59593;51.716;7.016;2022-10-16T09:23:13;15.90;99.90
71754;DHT22;59593;51.716;7.016;2022-10-16T09:25:44;16.10;99.90
71754;DHT22;59593;51.716;7.016;2022-10-16T09:28:10;16.20;99.90
71754;DHT22;59593;51.716;7.016;2022-10-16T09:30:36;16.20;99.90
71754;DHT22;59593;51.716;7.016;2022-10-16T09:33:03;16.20;99.90
71754;DHT22;59593;51.716;7.016;2022-10-16T09:35:39;16.30;99.90
71754;DHT22;59593;51.716;7.016;2022-10-16T09:38:06;16.30;99.90
71754;DHT22;59593;51.716;7.016;2022-10-16T09:40:37;16.40;99.90
71754;DHT22;59593;51.716;7.016;2022-10-16T09:45:34;16.40;99.90
71754;DHT22;59593;51.716;7.016;2022-10-16T09:48:08;16.40;99.90
71754;DHT22;59593;51.716;7.016;2022-10-16T09:50:35;16.50;99.90
71754;DHT22;59593;51.716;7.016;2022-10-16T09:53:10;16.60;99.90
71754;DHT22;59593;51.716;7.016;2022-10-16T09:55:47;16.60;99.90
71754;DHT22;59593;51.716;7.016;2022-10-16T09:58:13;16.60;99.90
71754;DHT22;59593;51.716;7.016;2022-10-16T10:00:41;16.80;99.90
71754;DHT22;59593;51.716;7.016;2022-10-16T10:03:11;16.90;99.90
71754;DHT22;59593;51.716;7.016;2022-10-16T10:05:39;16.90;99.90
71754;DHT22;59593;51.716;7.016;2022-10-16T10:08:05;17.10;99.90
71754;DHT22;59593;51.716;7.016;2022-10-16T10:10:41;17.10;99.90
71754;DHT22;59593;51.716;7.016;2022-10-16T10:13:19;17.10;99.90
71754;DHT22;59593;51.716;7.016;2022-10-16T10:15:45;17.30;99.90
71754;DHT22;59593;51.716;7.016;2022-10-16T10:18:16;17.20;99.90
71754;DHT22;59593;51.716;7.016;2022-10-16T10:20:43;17.40;99.90
71754;DHT22;59593;51.716;7.016;2022-10-16T10:23:24;17.60;99.90
71754;DHT22;59593;51.716;7.016;2022-10-16T10:26:16;17.80;99.90
71754;DHT22;59593;51.716;7.016;2022-10-16T10:32:05;18.40;99.90
71754;DHT22;59593;51.716;7.016;2022-10-16T10:34:48;18.30;99.90
71754;DHT22;59593;51.716;7.016;2022-10-16T10:37:36;18.80;99.90
71754;DHT22;59593;51.716;7.016;2022-10-16T10:45:40;19.60;99.90
71754;DHT22;59593;51.716;7.016;2022-10-16T10:48:46;19.60;99.90
71754;DHT22;59593;51.716;7.016;2022-10-16T10:51:28;19.50;99.90
71754;DHT22;59593;51.716;7.016;2022-10-16T10:56:45;20.50;99.90
71754;DHT22;59593;51.716;7.016;2022-10-16T11:02:10;20.30;99.90
71754;DHT22;59593;51.716;7.016;2022-10-16T11:07:28;20.70;99.90
71754;DHT22;59593;51.716;7.016;2022-10-16T11:10:07;20.10;99.90
71754;DHT22;59593;51.716;7.016;2022-10-16T11:12:44;19.70;99.90
71754;DHT22;59593;51.716;7.016;2022-10-16T11:15:14;20.10;99.90
71754;DHT22;59593;51.716;7.016;2022-10-16T11:18:03;20.50;99.90
71754;DHT22;59593;51.716;7.016;2022-10-16T11:20:39;20.30;99.90
71754;DHT22;59593;51.716;7.016;2022-10-16T11:23:17;20.00;99.90
71754;DHT22;59593;51.716;7.016;2022-10-16T11:25:47;19.90;99.90
71754;DHT22;59593;51.716;7.016;2022-10-16T11:28:25;20.70;99.90
71754;DHT22;59593;51.716;7.016;2022-10-16T11:31:13;20.90;99.90
71754;DHT22;59593;51.716;7.016;2022-10-16T11:33:47;20.90;99.90
71754;DHT22;59593;51.716;7.016;2022-10-16T11:36:25;19.60;99.90
71754;DHT22;59593;51.716;7.016;2022-10-16T11:41:41;18.40;99.90
71754;DHT22;59593;51.716;7.016;2022-10-16T11:46:48;18.10;99.90
71754;DHT22;59593;51.716;7.016;2022-10-16T11:49:20;18.30;99.90
71754;DHT22;59593;51.716;7.016;2022-10-16T11:54:43;18.70;99.90
71754;DHT22;59593;51.716;7.016;2022-10-16T11:59:57;18.10;99.90
71754;DHT22;59593;51.716;7.016;2022-10-16T12:05:36;18.50;99.90
71754;DHT22;59593;51.716;7.016;2022-10-16T12:08:09;19.60;99.90
71754;DHT22;59593;51.716;7.016;2022-10-16T12:10:37;20.60;99.90
71754;DHT22;59593;51.716;7.016;2022-10-16T12:13:41;20.30;99.90
71754;DHT22;59593;51.716;7.016;2022-10-16T12:18:44;20.40;99.90
71754;DHT22;59593;51.716;7.016;2022-10-16T12:21:12;21.30;99.90
71754;DHT22;59593;51.716;7.016;2022-10-16T12:23:52;21.80;99.90
71754;DHT22;59593;51.716;7.016;2022-10-16T12:26:33;22.20;99.90
71754;DHT22;59593;51.716;7.016;2022-10-16T12:29:33;21.90;99.90
71754;DHT22;59593;51.716;7.016;2022-10-16T12:32:00;22.40;99.90
71754;DHT22;59593;51.716;7.016;2022-10-16T12:34:32;23.40;99.90
71754;DHT22;59593;51.716;7.016;2022-10-16T12:37:21;24.10;99.90
71754;DHT22;59593;51.716;7.016;2022-10-16T12:39:48;24.30;99.90
71754;DHT22;59593;51.716;7.016;2022-10-16T12:42:30;22.30;99.90
71754;DHT22;59593;51.716;7.016;2022-10-16T12:44:56;22.60;99.90
71754;DHT22;59593;51.716;7.016;2022-10-16T12:49:57;23.60;99.90
71754;DHT22;59593;51.716;7.016;2022-10-16T12:52:38;23.90;99.90
71754;DHT22;59593;51.716;7.016;2022-10-16T12:55:05;24.30;99.90
71754;DHT22;59593;51.716;7.016;2022-10-16T13:00:44;24.90;99.90
71754;DHT22;59593;51.716;7.016;2022-10-16T13:06:11;25.50;99.90
71754;DHT22;59593;51.716;7.016;2022-10-16T13:12:06;24.00;99.90
71754;DHT22;59593;51.716;7.016;2022-10-16T13:17:50;25.80;99.90
71754;DHT22;59593;51.716;7.016;2022-10-16T13:28:22;26.00;99.90
71754;DHT22;59593;51.716;7.016;2022-10-16T13:30:54;25.70;99.90
71754;DHT22;59593;51.716;7.016;2022-10-16T13:36:01;26.10;99.90
71754;DHT22;59593;51.716;7.016;2022-10-16T13:38:30;25.60;99.90
71754;DHT22;59593;51.716;7.016;2022-10-16T13:41:15;25.70;99.90
71754;DHT22;59593;51.716;7.016;2022-10-16T13:43:45;25.60;99.90
71754;DHT22;59593;51.716;7.016;2022-10-16T13:46:15;25.60;99.90
71754;DHT22;59593;51.716;7.016;2022-10-16T13:48:41;26.20;99.90
71754;DHT22;59593;51.716;7.016;2022-10-16T13:51:18;25.50;99.90
71754;DHT22;59593;51.716;7.016;2022-10-16T13:53:44;25.30;99.90
71754;DHT22;59593;51.716;7.016;2022-10-16T13:56:13;25.50;99.90
71754;DHT22;59593;51.716;7.016;2022-10-16T13:58:40;24.30;99.90
71754;DHT22;59593;51.716;7.016;2022-10-16T14:01:19;23.40;99.90
71754;DHT22;59593;51.716;7.016;2022-10-16T14:03:46;23.10;99.90
71754;DHT22;59593;51.716;7.016;2022-10-16T14:06:20;22.90;99.90
71754;DHT22;59593;51.716;7.016;2022-10-16T14:09:05;22.30;99.90
71754;DHT22;59593;51.716;7.016;2022-10-16T14:11:32;21.80;99.90
71754;DHT22;59593;51.716;7.016;2022-10-16T14:13:59;21.70;99.90
71754;DHT22;59593;51.716;7.016;2022-10-16T14:16:29;21.70;99.90
71754;DHT22;59593;51.716;7.016;2022-10-16T14:18:58;22.50;99.90
71754;DHT22;59593;51.716;7.016;2022-10-16T14:21:24;23.30;99.90
71754;DHT22;59593;51.716;7.016;2022-10-16T14:23:52;24.40;99.90
71754;DHT22;59593;51.716;7.016;2022-10-16T14:26:20;25.00;99.90
71754;DHT22;59593;51.716;7.016;2022-10-16T14:28:48;25.10;99.90
71754;DHT22;59593;51.716;7.016;2022-10-16T14:33:52;22.90;99.90
71754;DHT22;59593;51.716;7.016;2022-10-16T14:36:18;21.50;99.90
71754;DHT22;59593;51.716;7.016;2022-10-16T14:41:26;20.40;99.90
71754;DHT22;59593;51.716;7.016;2022-10-16T14:43:54;20.10;99.90
71754;DHT22;59593;51.716;7.016;2022-10-16T14:46:28;20.10;99.90
71754;DHT22;59593;51.716;7.016;2022-10-16T14:49:04;20.70;99.90
71754;DHT22;59593;51.716;7.016;2022-10-16T14:51:39;21.60;99.90
71754;DHT22;59593;51.716;7.016;2022-10-16T14:54:08;22.10;99.90
71754;DHT22;59593;51.716;7.016;2022-10-16T14:59:16;20.90;99.90
71754;DHT22;59593;51.716;7.016;2022-10-16T15:01:43;20.60;99.90
71754;DHT22;59593;51.716;7.016;2022-10-16T15:04:11;20.40;99.90
71754;DHT22;59593;51.716;7.016;2022-10-16T15:06:37;20.20;99.90
71754;DHT22;59593;51.716;7.016;2022-10-16T15:09:03;20.00;99.90
71754;DHT22;59593;51.716;7.016;2022-10-16T15:11:31;19.80;99.90
71754;DHT22;59593;51.716;7.016;2022-10-16T15:13:57;19.60;99.90
71754;DHT22;59593;51.716;7.016;2022-10-16T15:16:23;19.40;99.90
71754;DHT22;59593;51.716;7.016;2022-10-16T15:18:49;19.00;99.90
71754;DHT22;59593;51.716;7.016;2022-10-16T15:21:27;18.80;99.90
71754;DHT22;59593;51.716;7.016;2022-10-16T15:23:53;18.80;99.90
71754;DHT22;59593;51.716;7.016;2022-10-16T15:26:18;18.80;99.90
71754;DHT22;59593;51.716;7.016;2022-10-16T15:28:44;18.80;99.90
71754;DHT22;59593;51.716;7.016;2022-10-16T15:31:10;18.80;99.90
71754;DHT22;59593;51.716;7.016;2022-10-16T15:33:35;18.80;99.90
71754;DHT22;59593;51.716;7.016;2022-10-16T15:36:02;18.80;99.90
71754;DHT22;59593;51.716;7.016;2022-10-16T15:38:28;18.70;99.90
71754;DHT22;59593;51.716;7.016;2022-10-16T15:40:55;18.70;99.90
71754;DHT22;59593;51.716;7.016;2022-10-16T15:43:21;18.60;99.90
71754;DHT22;59593;51.716;7.016;2022-10-16T15:46:04;18.50;99.90
71754;DHT22;59593;51.716;7.016;2022-10-16T15:48:31;18.30;99.90
71754;DHT22;59593;51.716;7.016;2022-10-16T15:50:57;18.20;99.90
71754;DHT22;59593;51.716;7.016;2022-10-16T15:53:22;18.20;99.90
71754;DHT22;59593;51.716;7.016;2022-10-16T15:55:48;18.20;99.90
71754;DHT22;59593;51.716;7.016;2022-10-16T15:58:13;18.10;99.90
71754;DHT22;59593;51.716;7.016;2022-10-16T16:00:39;18.00;99.90
71754;DHT22;59593;51.716;7.016;2022-10-16T16:03:05;18.00;99.90
71754;DHT22;59593;51.716;7.016;2022-10-16T16:05:31;17.90;99.90
71754;DHT22;59593;51.716;7.016;2022-10-16T16:07:58;17.90;99.90
71754;DHT22;59593;51.716;7.016;2022-10-16T16:10:24;17.70;99.90
71754;DHT22;59593;51.716;7.016;2022-10-16T16:12:50;17.70;99.90
71754;DHT22;59593;51.716;7.016;2022-10-16T16:15:19;17.50;99.90
71754;DHT22;59593;51.716;7.016;2022-10-16T16:17:45;17.30;99.90
71754;DHT22;59593;51.716;7.016;2022-10-16T16:20:11;17.10;99.90
71754;DHT22;59593;51.716;7.016;2022-10-16T16:22:37;17.00;99.90
71754;DHT22;59593;51.716;7.016;2022-10-16T16:25:03;17.00;99.90
71754;DHT22;59593;51.716;7.016;2022-10-16T16:27:28;17.00;99.90
71754;DHT22;59593;51.716;7.016;2022-10-16T16:29:55;17.00;99.90
71754;DHT22;59593;51.716;7.016;2022-10-16T16:32:21;16.90;99.90
71754;DHT22;59593;51.716;7.016;2022-10-16T16:34:46;16.70;99.90
71754;DHT22;59593;51.716;7.016;2022-10-16T16:37:13;16.70;99.90
71754;DHT22;59593;51.716;7.016;2022-10-16T16:39:38;16.60;99.90
71754;DHT22;59593;51.716;7.016;2022-10-16T16:42:04;16.50;99.90
71754;DHT22;59593;51.716;7.016;2022-10-16T16:44:31;16.50;99.90
71754;DHT22;59593;51.716;7.016;2022-10-16T16:46:57;16.40;99.90
71754;DHT22;59593;51.716;7.016;2022-10-16T16:49:23;16.30;99.90
71754;DHT22;59593;51.716;7.016;2022-10-16T16:51:48;16.20;99.90
71754;DHT22;59593;51.716;7.016;2022-10-16T16:54:14;16.10;99.90
71754;DHT22;59593;51.716;7.016;2022-10-16T16:56:40;16.10;99.90
71754;DHT22;59593;51.716;7.016;2022-10-16T16:59:14;16.00;99.90
71754;DHT22;59593;51.716;7.016;2022-10-16T17:01:40;16.00;99.90
71754;DHT22;59593;51.716;7.016;2022-10-16T17:04:07;16.00;99.90
71754;DHT22;59593;51.716;7.016;2022-10-16T17:06:33;16.00;99.90
71754;DHT22;59593;51.716;7.016;2022-10-16T17:09:01;16.10;99.90
71754;DHT22;59593;51.716;7.016;2022-10-16T17:11:28;16.00;99.90
71754;DHT22;59593;51.716;7.016;2022-10-16T17:13:55;16.00;99.90
71754;DHT22;59593;51.716;7.016;2022-10-16T17:16:27;16.00;99.90
71754;DHT22;59593;51.716;7.016;2022-10-16T17:18:53;15.90;99.90
71754;DHT22;59593;51.716;7.016;2022-10-16T17:21:19;15.90;99.90